Time;durP1;ratioP1;P1;durP2;ratioP2;P2;SDS_P1;SDS_P2;PMS_P1;PMS_P2;Temp;Humidity;BMP_temperature;BMP_pressure;BME280_temperature;BME280_humidity;BME280_pressure;Samples;Min_cycle;Max_cycle;Signal;HPM_P1;HPM_P2
2022/03/18 00:01:25;;;;;;;58.65;45.40;;;;;;;;;;4956854;28;20067;-66
2022/03/18 00:03:54;;;;;;;55.72;44.33;;;;;;;;;;4957016;29;20510;-66
2022/03/18 00:06:23;;;;;;;59.22;46.42;;;;;;;;;;4957111;29;20065;-66
2022/03/18 00:08:52;;;;;;;61.13;44.10;;;;;;;;;;4956984;29;20131;-66
2022/03/18 00:11:20;;;;;;;56.95;45.05;;;;;;;;;;4956658;28;20090;-66
2022/03/18 00:13:48;;;;;;;53.28;42.00;;;;;;;;;;4971627;28;20043;-66
2022/03/18 00:16:18;;;;;;;53.75;42.78;;;;;;;;;;4956924;29;20098;-68
2022/03/18 00:18:45;;;;;;;57.30;39.67;;;;;;;;;;4956658;28;20058;-68
2022/03/18 00:21:14;;;;;;;53.47;40.50;;;;;;;;;;4956651;28;20106;-68
2022/03/18 00:23:42;;;;;;;45.72;39.47;;;;;;;;;;4956722;28;20047;-68
2022/03/18 00:26:11;;;;;;;55.45;42.83;;;;;;;;;;4956557;28;20062;-66
2022/03/18 00:28:43;;;;;;;51.25;38.85;;;;;;;;;;4956792;28;20098;-66
2022/03/18 00:31:12;;;;;;;46.90;38.15;;;;;;;;;;4956594;28;20051;-66
2022/03/18 00:33:40;;;;;;;51.13;39.53;;;;;;;;;;4939812;29;20047;-66
2022/03/18 00:36:09;;;;;;;50.83;39.70;;;;;;;;;;4956744;28;20087;-66
2022/03/18 00:38:39;;;;;;;53.60;41.45;;;;;;;;;;4956530;28;20051;-66
2022/03/18 00:41:08;;;;;;;52.03;40.90;;;;;;;;;;4956226;28;20074;-66
2022/03/18 00:43:37;;;;;;;53.20;41.65;;;;;;;;;;4956157;28;20554;-66
2022/03/18 00:46:06;;;;;;;50.17;42.13;;;;;;;;;;4956481;28;20051;-66
2022/03/18 00:54:10;;;;;;;51.20;40.92;;;;;;;;;;4956104;29;20098;-66
2022/03/18 00:56:39;;;;;;;55.58;42.50;;;;;;;;;;4955896;28;20498;-66
2022/03/18 00:59:07;;;;;;;57.40;46.35;;;;;;;;;;4955949;29;20399;-66
2022/03/18 01:01:36;;;;;;;56.17;42.45;;;;;;;;;;4955875;29;20047;-66
2022/03/18 01:04:05;;;;;;;57.70;43.95;;;;;;;;;;4956089;29;20043;-66
2022/03/18 01:06:35;;;;;;;58.50;43.15;;;;;;;;;;4955741;28;20058;-66
2022/03/18 01:09:05;;;;;;;56.35;41.78;;;;;;;;;;4955647;29;20047;-66
2022/03/18 01:11:34;;;;;;;55.13;42.55;;;;;;;;;;4955730;29;20054;-66
2022/03/18 01:14:02;;;;;;;51.55;41.33;;;;;;;;;;4955738;28;20407;-66
2022/03/18 01:16:31;;;;;;;58.47;42.90;;;;;;;;;;4955562;28;20518;-66
2022/03/18 01:18:59;;;;;;;52.70;42.92;;;;;;;;;;4956041;28;20079;-66
2022/03/18 01:21:27;;;;;;;54.28;42.58;;;;;;;;;;4955691;28;20069;-66
2022/03/18 01:23:57;;;;;;;51.92;42.08;;;;;;;;;;4955660;28;20107;-66
2022/03/18 01:26:26;;;;;;;55.20;40.25;;;;;;;;;;4955566;28;20055;-68
2022/03/18 01:28:56;;;;;;;48.88;37.95;;;;;;;;;;4955606;29;20051;-68
2022/03/18 01:31:26;;;;;;;50.50;40.50;;;;;;;;;;4955423;29;20141;-68
2022/03/18 01:33:56;;;;;;;47.22;36.78;;;;;;;;;;4955725;28;20059;-66
2022/03/18 01:36:25;;;;;;;55.50;42.95;;;;;;;;;;4955262;29;20047;-66
2022/03/18 01:38:55;;;;;;;52.80;38.80;;;;;;;;;;4955545;29;20566;-66
2022/03/18 01:41:22;;;;;;;54.00;39.40;;;;;;;;;;4955312;29;20051;-66
2022/03/18 01:43:51;;;;;;;51.20;39.28;;;;;;;;;;4955299;28;20063;-67
2022/03/18 01:46:19;;;;;;;48.53;39.70;;;;;;;;;;4954364;29;20490;-66
2022/03/18 01:48:48;;;;;;;49.95;41.85;;;;;;;;;;4955135;28;20106;-67
2022/03/18 01:51:17;;;;;;;52.58;38.92;;;;;;;;;;4955532;28;20055;-66
2022/03/18 01:53:46;;;;;;;51.83;39.95;;;;;;;;;;4955149;28;20047;-67
2022/03/18 01:56:14;;;;;;;51.67;40.03;;;;;;;;;;4954867;28;20051;-67
2022/03/18 01:58:42;;;;;;;54.20;43.75;;;;;;;;;;4955056;28;20138;-67
2022/03/18 02:01:12;;;;;;;48.95;40.53;;;;;;;;;;4955267;28;20134;-67
2022/03/18 02:03:42;;;;;;;50.10;39.83;;;;;;;;;;4955123;29;20051;-66
2022/03/18 02:06:12;;;;;;;53.47;39.45;;;;;;;;;;4955263;28;20138;-66
2022/03/18 02:08:44;;;;;;;48.17;40.33;;;;;;;;;;4954875;28;20047;-66
2022/03/18 02:11:13;;;;;;;49.85;39.67;;;;;;;;;;4954961;28;20054;-66
2022/03/18 02:13:41;;;;;;;51.28;39.83;;;;;;;;;;4969846;28;20054;-66
2022/03/18 02:16:09;;;;;;;50.42;39.80;;;;;;;;;;4955118;28;20098;-66
2022/03/18 02:18:39;;;;;;;50.50;40.10;;;;;;;;;;4956082;28;20058;-66
2022/03/18 02:21:09;;;;;;;58.08;41.47;;;;;;;;;;4958862;28;20456;-66
2022/03/18 02:23:39;;;;;;;50.20;40.92;;;;;;;;;;4959046;28;20102;-66
2022/03/18 02:26:07;;;;;;;53.95;38.45;;;;;;;;;;4958907;28;20070;-66
2022/03/18 02:28:36;;;;;;;56.80;41.78;;;;;;;;;;4958939;28;20055;-66
2022/03/18 02:31:04;;;;;;;56.05;43.20;;;;;;;;;;4958708;28;20494;-66
2022/03/18 02:33:33;;;;;;;52.40;40.85;;;;;;;;;;4959077;28;20574;-66
2022/03/18 02:36:02;;;;;;;58.63;42.40;;;;;;;;;;4958186;28;20097;-66
2022/03/18 02:38:32;;;;;;;48.88;39.20;;;;;;;;;;4958878;28;20051;-66
2022/03/18 02:41:01;;;;;;;47.97;38.28;;;;;;;;;;4958316;28;20095;-66
2022/03/18 02:43:30;;;;;;;56.72;42.20;;;;;;;;;;4958716;28;20491;-66
2022/03/18 02:45:58;;;;;;;52.22;40.47;;;;;;;;;;4958719;28;20130;-66
2022/03/18 02:48:26;;;;;;;52.42;40.55;;;;;;;;;;4958328;28;20051;-66
2022/03/18 02:50:54;;;;;;;58.45;42.00;;;;;;;;;;4958215;28;20054;-67
2022/03/18 02:53:23;;;;;;;49.60;40.00;;;;;;;;;;4952363;28;20064;-66
2022/03/18 02:55:54;;;;;;;57.03;40.85;;;;;;;;;;4958426;28;20051;-66
2022/03/18 02:58:23;;;;;;;44.95;35.28;;;;;;;;;;4958275;29;20142;-68
2022/03/18 03:00:53;;;;;;;49.17;37.42;;;;;;;;;;4957590;28;20111;-69
2022/03/18 03:03:22;;;;;;;48.45;36.80;;;;;;;;;;4958154;28;20055;-69
2022/03/18 03:08:38;;;;;;;48.60;37.97;;;;;;;;;;4958141;29;20122;-69
2022/03/18 03:11:06;;;;;;;51.03;39.53;;;;;;;;;;4958088;28;20062;-68
2022/03/18 03:13:34;;;;;;;46.67;37.05;;;;;;;;;;4958080;28;20047;-69
2022/03/18 03:16:03;;;;;;;52.47;37.67;;;;;;;;;;4957812;28;20055;-65
2022/03/18 03:18:31;;;;;;;48.95;38.17;;;;;;;;;;4957736;28;20051;-65
2022/03/18 03:21:01;;;;;;;47.58;37.45;;;;;;;;;;4957473;28;20482;-65
2022/03/18 03:23:30;;;;;;;46.30;37.38;;;;;;;;;;4957814;28;20055;-65
2022/03/18 03:25:59;;;;;;;49.45;36.72;;;;;;;;;;4957844;28;20098;-65
2022/03/18 03:28:28;;;;;;;52.58;39.08;;;;;;;;;;4957839;28;20051;-65
2022/03/18 03:30:56;;;;;;;51.63;37.38;;;;;;;;;;4957337;28;20130;-65
2022/03/18 03:33:27;;;;;;;51.83;36.55;;;;;;;;;;4957865;28;20047;-65
2022/03/18 03:35:58;;;;;;;45.17;36.30;;;;;;;;;;4957662;28;20459;-65
2022/03/18 03:38:27;;;;;;;50.53;37.95;;;;;;;;;;4957873;28;20051;-65
2022/03/18 03:40:56;;;;;;;48.13;38.25;;;;;;;;;;4957516;28;20054;-65
2022/03/18 03:43:28;;;;;;;53.05;39.00;;;;;;;;;;4952798;29;20051;-65
2022/03/18 03:45:55;;;;;;;56.22;37.80;;;;;;;;;;4957322;29;20114;-65
2022/03/18 03:48:23;;;;;;;49.25;37.70;;;;;;;;;;4956280;29;20044;-65
2022/03/18 03:50:52;;;;;;;53.33;39.83;;;;;;;;;;4957324;29;20564;-65
2022/03/18 03:53:21;;;;;;;52.05;36.58;;;;;;;;;;4956999;29;20047;-65
2022/03/18 03:55:50;;;;;;;48.58;39.50;;;;;;;;;;4957240;28;20055;-65
2022/03/18 03:58:19;;;;;;;45.95;36.58;;;;;;;;;;4957153;29;20134;-65
2022/03/18 04:00:47;;;;;;;49.45;37.83;;;;;;;;;;4957025;29;20406;-65
2022/03/18 04:03:16;;;;;;;47.90;39.20;;;;;;;;;;4956877;29;20062;-65
2022/03/18 04:05:45;;;;;;;53.88;39.40;;;;;;;;;;4955987;29;20055;-65
2022/03/18 04:08:14;;;;;;;48.85;37.00;;;;;;;;;;4957420;29;20489;-65
2022/03/18 04:10:43;;;;;;;45.70;35.97;;;;;;;;;;4956914;29;20047;-65
2022/03/18 04:13:12;;;;;;;47.60;36.33;;;;;;;;;;4956987;29;20114;-65
2022/03/18 04:15:41;;;;;;;45.50;36.25;;;;;;;;;;4956683;28;20134;-67
2022/03/18 04:18:10;;;;;;;44.53;33.70;;;;;;;;;;4957290;28;20047;-67
2022/03/18 04:20:38;;;;;;;51.80;35.60;;;;;;;;;;4956354;28;20075;-67
2022/03/18 04:23:06;;;;;;;44.03;34.20;;;;;;;;;;4956687;29;20531;-67
2022/03/18 04:25:34;;;;;;;46.88;32.95;;;;;;;;;;4956569;29;20054;-66
2022/03/18 04:28:03;;;;;;;42.05;32.42;;;;;;;;;;4956862;29;20380;-66
2022/03/18 04:30:33;;;;;;;44.42;32.80;;;;;;;;;;4955200;29;20047;-66
2022/03/18 04:33:01;;;;;;;39.70;31.30;;;;;;;;;;4956417;29;20134;-65
2022/03/18 04:35:31;;;;;;;43.15;31.63;;;;;;;;;;4956753;29;20403;-66
2022/03/18 04:38:01;;;;;;;44.38;33.30;;;;;;;;;;4956822;28;20055;-66
2022/03/18 04:40:31;;;;;;;40.47;33.08;;;;;;;;;;4956576;28;20095;-66
2022/03/18 04:43:01;;;;;;;44.55;31.88;;;;;;;;;;4955042;28;20047;-66
2022/03/18 04:45:29;;;;;;;47.97;35.63;;;;;;;;;;4956213;28;20059;-66
2022/03/18 04:47:58;;;;;;;47.33;33.53;;;;;;;;;;4949367;28;20047;-66
2022/03/18 04:50:29;;;;;;;47.65;36.15;;;;;;;;;;4955390;29;20063;-66
2022/03/18 04:52:58;;;;;;;56.88;37.08;;;;;;;;;;4955938;28;20129;-66
2022/03/18 04:55:28;;;;;;;57.05;37.63;;;;;;;;;;4956112;29;20188;-66
2022/03/18 04:57:59;;;;;;;49.25;36.65;;;;;;;;;;4955681;28;20055;-66
2022/03/18 05:00:28;;;;;;;48.92;37.53;;;;;;;;;;4956223;29;20059;-66
2022/03/18 05:02:56;;;;;;;46.30;32.78;;;;;;;;;;4949560;29;20102;-66
2022/03/18 05:05:25;;;;;;;46.25;35.35;;;;;;;;;;4955749;29;20495;-66
2022/03/18 05:07:53;;;;;;;47.35;34.97;;;;;;;;;;4956065;29;20549;-66
2022/03/18 05:10:22;;;;;;;47.05;35.35;;;;;;;;;;4955910;28;20471;-66
2022/03/18 05:12:53;;;;;;;44.33;34.40;;;;;;;;;;4955427;29;20043;-66
2022/03/18 05:15:21;;;;;;;44.13;34.05;;;;;;;;;;4955801;28;20142;-65
2022/03/18 05:17:54;;;;;;;41.63;32.75;;;;;;;;;;4956028;28;20048;-65
2022/03/18 05:20:22;;;;;;;42.85;33.45;;;;;;;;;;4955893;28;20113;-65
2022/03/18 05:22:54;;;;;;;45.00;33.13;;;;;;;;;;4955515;29;20047;-65
2022/03/18 05:25:23;;;;;;;40.70;32.72;;;;;;;;;;4955374;29;20051;-65
2022/03/18 05:27:53;;;;;;;43.55;32.08;;;;;;;;;;4955542;29;20055;-65
2022/03/18 05:30:24;;;;;;;47.60;31.80;;;;;;;;;;4955589;28;20106;-65
2022/03/18 05:32:54;;;;;;;46.17;32.45;;;;;;;;;;4955768;28;20051;-65
2022/03/18 05:35:22;;;;;;;51.72;32.42;;;;;;;;;;4955268;28;20083;-65
2022/03/18 05:37:52;;;;;;;46.95;33.17;;;;;;;;;;4955460;28;20515;-65
2022/03/18 05:40:21;;;;;;;44.10;33.83;;;;;;;;;;4955178;29;20055;-65
2022/03/18 05:42:49;;;;;;;44.85;34.60;;;;;;;;;;4954899;28;20047;-65
2022/03/18 05:45:19;;;;;;;49.90;34.58;;;;;;;;;;4969688;28;20059;-66
2022/03/18 05:47:47;;;;;;;52.33;34.03;;;;;;;;;;4955161;28;20051;-66
2022/03/18 05:50:17;;;;;;;46.70;35.00;;;;;;;;;;4953999;28;20143;-67
2022/03/18 05:52:46;;;;;;;50.33;35.67;;;;;;;;;;4952714;29;20070;-67
2022/03/18 05:55:14;;;;;;;48.63;37.42;;;;;;;;;;4951024;29;20406;-67
2022/03/18 05:57:43;;;;;;;44.60;33.92;;;;;;;;;;4954779;28;20495;-67
2022/03/18 06:00:14;;;;;;;50.58;34.60;;;;;;;;;;4954632;28;20040;-68
2022/03/18 06:02:45;;;;;;;47.63;32.63;;;;;;;;;;4952244;29;20494;-67
2022/03/18 06:05:13;;;;;;;42.75;33.50;;;;;;;;;;4954310;28;20085;-67
2022/03/18 06:07:44;;;;;;;43.33;35.95;;;;;;;;;;4952255;28;20090;-66
2022/03/18 06:13:00;;;;;;;45.83;35.22;;;;;;;;;;4952475;29;20055;-66
2022/03/18 06:15:30;;;;;;;47.97;36.10;;;;;;;;;;4954135;28;20079;-64
2022/03/18 06:18:03;;;;;;;;;;;;;;;;;;4954514;28;20051;-66
2022/03/18 06:20:33;;;;;;;55.00;38.00;;;;;;;;;;4954405;28;20333;-65
2022/03/18 06:23:01;;;;;;;51.58;39.33;;;;;;;;;;4954382;28;20047;-66
2022/03/18 06:25:30;;;;;;;51.00;39.50;;;;;;;;;;4953124;29;20047;-66
2022/03/18 06:28:00;;;;;;;61.70;41.75;;;;;;;;;;4953245;28;20063;-65
2022/03/18 06:30:30;;;;;;;55.05;38.55;;;;;;;;;;4953256;29;20507;-65
2022/03/18 06:32:58;;;;;;;49.78;37.03;;;;;;;;;;4955162;28;20447;-67
2022/03/18 06:35:27;;;;;;;51.80;38.38;;;;;;;;;;4953647;29;20126;-68
2022/03/18 06:37:59;;;;;;;50.40;37.75;;;;;;;;;;4954798;28;20055;-68
2022/03/18 06:40:28;;;;;;;44.97;36.38;;;;;;;;;;4954675;28;20051;-68
2022/03/18 06:42:57;;;;;;;50.13;36.47;;;;;;;;;;4955030;28;20106;-68
2022/03/18 06:45:26;;;;;;;45.65;35.58;;;;;;;;;;4954721;28;20051;-66
2022/03/18 06:47:56;;;;;;;51.10;38.20;;;;;;;;;;4954990;28;20055;-68
2022/03/18 06:50:25;;;;;;;56.55;37.65;;;;;;;;;;4948790;29;20052;-68
2022/03/18 06:52:54;;;;;;;60.22;40.38;;;;;;;;;;4948849;29;20597;-68
2022/03/18 06:55:22;;;;;;;55.28;36.75;;;;;;;;;;4954939;29;20047;-68
2022/03/18 06:57:51;;;;;;;50.17;39.10;;;;;;;;;;4953047;29;20537;-68
2022/03/18 07:00:20;;;;;;;57.60;40.20;;;;;;;;;;4954966;28;20126;-69
2022/03/18 07:02:48;;;;;;;58.55;40.17;;;;;;;;;;4954691;28;20077;-66
2022/03/18 07:05:17;;;;;;;54.17;39.13;;;;;;;;;;4956162;28;20051;-67
2022/03/18 07:07:44;;;;;;;54.13;41.13;;;;;;;;;;4957492;28;20058;-67
2022/03/18 07:10:12;;;;;;;53.78;39.97;;;;;;;;;;4957484;28;20051;-67
2022/03/18 07:12:42;;;;;;;59.85;41.60;;;;;;;;;;4957625;28;20498;-66
2022/03/18 07:15:11;;;;;;;54.53;41.50;;;;;;;;;;4957219;29;20427;-67
2022/03/18 07:17:58;;;;;;;59.15;42.65;;;;;;;;;;4957764;28;20138;-69
2022/03/18 07:20:28;;;;;;;56.58;42.42;;;;;;;;;;4957676;28;20047;-68
2022/03/18 07:23:15;;;;;;;55.13;39.97;;;;;;;;;;4957692;28;20070;-68
2022/03/18 07:25:48;;;;;;;57.92;41.97;;;;;;;;;;4957325;28;20418;-68
2022/03/18 07:28:19;;;;;;;67.47;41.88;;;;;;;;;;4957512;28;20078;-68
2022/03/18 07:30:48;;;;;;;62.03;46.63;;;;;;;;;;4954962;29;20050;-68
2022/03/18 07:33:16;;;;;;;60.20;43.70;;;;;;;;;;4957139;28;20055;-68
2022/03/18 07:35:44;;;;;;;56.95;43.53;;;;;;;;;;4956936;28;20140;-68
2022/03/18 07:38:13;;;;;;;64.78;44.20;;;;;;;;;;4957238;29;20058;-68
2022/03/18 07:40:43;;;;;;;56.15;40.53;;;;;;;;;;4956954;28;20051;-68
2022/03/18 07:43:11;;;;;;;54.90;39.20;;;;;;;;;;4957092;28;20051;-68
2022/03/18 07:45:40;;;;;;;53.10;41.15;;;;;;;;;;4950150;29;20077;-69
2022/03/18 07:48:09;;;;;;;62.05;45.70;;;;;;;;;;4957205;28;20054;-68
2022/03/18 07:50:39;;;;;;;59.10;42.40;;;;;;;;;;4956770;28;20521;-67
2022/03/18 07:53:09;;;;;;;56.22;43.97;;;;;;;;;;4955733;29;20056;-69
2022/03/18 07:55:38;;;;;;;57.83;44.13;;;;;;;;;;4957135;28;20051;-69
2022/03/18 07:58:07;;;;;;;53.47;41.88;;;;;;;;;;4956769;28;20470;-69
2022/03/18 08:00:35;;;;;;;57.60;43.20;;;;;;;;;;4956818;28;20043;-69
2022/03/18 08:03:04;;;;;;;61.40;41.13;;;;;;;;;;4954437;28;20138;-69
2022/03/18 08:05:31;;;;;;;54.28;41.95;;;;;;;;;;4956758;28;20107;-69
2022/03/18 08:08:01;;;;;;;61.00;45.08;;;;;;;;;;4950182;29;20094;-69
2022/03/18 08:10:29;;;;;;;57.10;45.17;;;;;;;;;;4956784;28;20047;-69
2022/03/18 08:12:56;;;;;;;52.25;40.28;;;;;;;;;;4956707;29;20093;-68
2022/03/18 08:15:28;;;;;;;64.05;44.08;;;;;;;;;;4951354;28;20039;-69
2022/03/18 08:17:56;;;;;;;55.05;45.40;;;;;;;;;;4955440;29;20057;-69
2022/03/18 08:20:24;;;;;;;55.53;44.90;;;;;;;;;;4956306;29;20411;-69
2022/03/18 08:22:53;;;;;;;57.20;43.75;;;;;;;;;;4956607;28;20043;-69
2022/03/18 08:25:23;;;;;;;53.38;43.88;;;;;;;;;;4955613;29;20059;-68
2022/03/18 08:27:52;;;;;;;55.78;42.40;;;;;;;;;;4956323;29;20200;-68
2022/03/18 08:30:20;;;;;;;50.90;39.80;;;;;;;;;;4955158;29;20055;-69
2022/03/18 08:32:48;;;;;;;52.35;40.38;;;;;;;;;;4953954;29;20055;-69
2022/03/18 08:35:17;;;;;;;56.17;40.70;;;;;;;;;;4955895;28;20059;-69
2022/03/18 08:37:57;;;;;;;55.17;39.47;;;;;;;;;;4955829;28;20055;-69
2022/03/18 08:40:50;;;;;;;54.67;40.30;;;;;;;;;;4956234;28;20047;-69
2022/03/18 08:43:18;;;;;;;55.58;40.70;;;;;;;;;;4956139;29;20139;-70
2022/03/18 08:45:46;;;;;;;50.80;39.25;;;;;;;;;;4956031;28;20074;-69
2022/03/18 08:48:15;;;;;;;56.55;40.05;;;;;;;;;;4954558;29;20058;-70
2022/03/18 08:50:43;;;;;;;45.92;38.08;;;;;;;;;;4956455;28;20062;-69
2022/03/18 08:53:12;;;;;;;52.17;39.42;;;;;;;;;;4956417;28;20388;-69
2022/03/18 08:55:41;;;;;;;52.05;38.60;;;;;;;;;;4952486;29;20427;-69
2022/03/18 08:58:10;;;;;;;47.83;36.72;;;;;;;;;;4955687;29;20051;-70
2022/03/18 09:00:39;;;;;;;43.90;36.75;;;;;;;;;;4955714;28;20487;-69
2022/03/18 09:03:08;;;;;;;48.70;36.88;;;;;;;;;;4953993;28;20051;-68
2022/03/18 09:05:37;;;;;;;49.38;35.92;;;;;;;;;;4953915;28;20043;-68
2022/03/18 09:08:06;;;;;;;40.08;33.67;;;;;;;;;;4953718;28;20098;-68
2022/03/18 09:10:35;;;;;;;40.85;34.03;;;;;;;;;;4948336;29;20507;-68
2022/03/18 09:13:09;;;;;;;40.67;33.10;;;;;;;;;;4953768;28;20130;-69
2022/03/18 09:15:41;;;;;;;41.92;34.92;;;;;;;;;;4953708;29;20079;-69
2022/03/18 09:18:10;;;;;;;37.47;31.17;;;;;;;;;;4953707;28;20051;-70
2022/03/18 09:20:40;;;;;;;38.72;29.42;;;;;;;;;;4950953;29;20043;-70
2022/03/18 09:23:08;;;;;;;42.75;30.20;;;;;;;;;;4953423;28;20051;-71
2022/03/18 09:25:38;;;;;;;41.20;32.13;;;;;;;;;;4953582;28;20070;-70
2022/03/18 09:28:07;;;;;;;37.33;29.55;;;;;;;;;;4952999;28;20130;-70
2022/03/18 09:30:52;;;;;;;34.33;29.90;;;;;;;;;;4952419;29;20518;-70
2022/03/18 09:33:21;;;;;;;38.72;31.70;;;;;;;;;;4953438;28;20071;-71
2022/03/18 09:35:50;;;;;;;41.03;30.85;;;;;;;;;;4947131;29;20063;-70
2022/03/18 09:38:19;;;;;;;43.53;32.25;;;;;;;;;;4953304;28;20058;-70
2022/03/18 09:40:49;;;;;;;48.25;32.08;;;;;;;;;;4953401;28;20141;-70
2022/03/18 09:43:34;;;;;;;39.55;32.97;;;;;;;;;;4953251;28;20051;-70
2022/03/18 09:46:09;;;;;;;37.22;28.58;;;;;;;;;;4951221;29;20106;-72
2022/03/18 09:48:57;;;;;;;35.13;28.73;;;;;;;;;;4952936;29;20545;-71
2022/03/18 09:51:27;;;;;;;39.53;28.70;;;;;;;;;;4953219;28;20592;-71
2022/03/18 09:54:28;;;;;;;38.22;28.98;;;;;;;;;;4953433;29;20494;-71
2022/03/18 09:56:57;;;;;;;36.63;30.30;;;;;;;;;;4954877;29;20047;-71
2022/03/18 09:59:29;;;;;;;40.05;27.27;;;;;;;;;;4954861;28;20090;-69
2022/03/18 10:02:23;;;;;;;28.02;25.15;;;;;;;;;;4954180;28;20561;-68
2022/03/18 10:04:58;;;;;;;27.50;21.83;;;;;;;;;;4952263;29;20127;-70
2022/03/18 10:07:28;;;;;;;24.95;22.38;;;;;;;;;;4955227;29;20426;-69
2022/03/18 10:10:31;;;;;;;27.40;21.63;;;;;;;;;;4955284;28;20070;-69
2022/03/18 10:13:01;;;;;;;26.02;22.77;;;;;;;;;;4954800;29;20086;-70
2022/03/18 10:15:30;;;;;;;25.73;21.70;;;;;;;;;;4955208;28;20053;-69
2022/03/18 10:18:00;;;;;;;27.35;21.77;;;;;;;;;;4955154;28;20050;-69
2022/03/18 10:20:32;;;;;;;26.00;23.30;;;;;;;;;;4955030;28;20062;-69
2022/03/18 10:23:02;;;;;;;23.05;20.60;;;;;;;;;;4955007;28;20435;-69
2022/03/18 10:25:42;;;;;;;22.20;19.85;;;;;;;;;;4955238;28;20047;-69
2022/03/18 10:28:12;;;;;;;27.35;18.35;;;;;;;;;;4955142;28;20047;-69
2022/03/18 10:30:41;;;;;;;22.52;20.13;;;;;;;;;;4954958;29;20039;-69
2022/03/18 10:33:13;;;;;;;22.55;19.17;;;;;;;;;;4954145;28;20058;-70
2022/03/18 10:38:35;;;;;;;22.38;18.95;;;;;;;;;;4952978;28;20130;-70
2022/03/18 10:41:07;;;;;;;22.48;18.73;;;;;;;;;;4957559;28;20047;-70
2022/03/18 10:43:56;;;;;;;22.83;19.45;;;;;;;;;;4957582;29;20111;-69
2022/03/18 10:46:24;;;;;;;24.05;21.08;;;;;;;;;;4957985;28;20518;-69
2022/03/18 10:49:06;;;;;;;25.23;20.92;;;;;;;;;;4949289;29;20055;-69
2022/03/18 10:51:35;;;;;;;27.25;20.10;;;;;;;;;;4957858;28;20062;-70
2022/03/18 10:54:05;;;;;;;27.60;20.73;;;;;;;;;;4957906;29;20550;-70
2022/03/18 10:56:56;;;;;;;24.33;20.88;;;;;;;;;;4957971;28;20458;-70
2022/03/18 10:59:27;;;;;;;21.52;19.30;;;;;;;;;;4958337;28;20059;-70
2022/03/18 11:02:00;;;;;;;27.42;21.77;;;;;;;;;;4958182;28;20054;-71
2022/03/18 11:04:30;;;;;;;26.73;20.38;;;;;;;;;;4958517;28;20082;-71
2022/03/18 11:12:35;;;;;;;26.38;19.23;;;;;;;;;;4950869;29;20130;-72
2022/03/18 11:15:05;;;;;;;29.58;19.75;;;;;;;;;;4956906;28;20051;-75
2022/03/18 11:17:35;;;;;;;22.55;20.17;;;;;;;;;;4958153;29;20051;-73
2022/03/18 11:20:04;;;;;;;23.65;19.58;;;;;;;;;;4957899;29;20130;-73
2022/03/18 11:22:35;;;;;;;22.55;19.88;;;;;;;;;;4957272;29;20055;-73
2022/03/18 11:25:06;;;;;;;28.25;19.58;;;;;;;;;;4957801;28;20136;-73
2022/03/18 11:27:40;;;;;;;26.55;20.45;;;;;;;;;;4957889;29;20059;-72
2022/03/18 11:30:25;;;;;;;25.90;21.38;;;;;;;;;;4957902;29;20051;-73
2022/03/18 11:33:05;;;;;;;22.05;19.50;;;;;;;;;;4957991;28;20145;-74
2022/03/18 11:35:49;;;;;;;24.73;22.05;;;;;;;;;;4957123;29;20072;-73
2022/03/18 11:38:23;;;;;;;23.48;20.02;;;;;;;;;;4957151;29;20044;-73
2022/03/18 11:40:53;;;;;;;26.00;20.95;;;;;;;;;;4950672;29;20569;-73
2022/03/18 11:43:48;;;;;;;22.65;19.67;;;;;;;;;;4937515;29;20056;-73
2022/03/18 11:46:16;;;;;;;34.17;18.83;;;;;;;;;;4935982;29;20051;-73
2022/03/18 11:48:46;;;;;;;19.55;17.42;;;;;;;;;;4956585;29;21183;-73
2022/03/18 11:51:29;;;;;;;19.10;17.10;;;;;;;;;;4956503;28;20138;-72
2022/03/18 11:54:01;;;;;;;20.02;17.88;;;;;;;;;;4957474;29;20055;-73
2022/03/18 11:56:45;;;;;;;19.23;16.95;;;;;;;;;;4957229;29;20047;-73
2022/03/18 11:59:27;;;;;;;19.27;16.50;;;;;;;;;;4950004;29;20063;-72
2022/03/18 12:02:05;;;;;;;20.25;15.52;;;;;;;;;;4957186;29;20098;-72
2022/03/18 12:04:33;;;;;;;21.13;16.75;;;;;;;;;;4957506;28;20047;-72
2022/03/18 12:07:18;;;;;;;20.77;17.02;;;;;;;;;;4956113;28;20130;-71
2022/03/18 12:09:51;;;;;;;20.67;17.42;;;;;;;;;;4956500;28;20062;-72
2022/03/18 12:12:25;;;;;;;19.55;16.00;;;;;;;;;;4956591;28;20422;-71
2022/03/18 12:14:56;;;;;;;19.17;15.63;;;;;;;;;;4955484;29;20140;-71
2022/03/18 12:17:25;;;;;;;18.02;16.23;;;;;;;;;;4955023;29;20134;-72
2022/03/18 12:20:17;;;;;;;21.10;16.58;;;;;;;;;;4951557;28;20133;-73
2022/03/18 12:22:46;;;;;;;19.53;16.73;;;;;;;;;;4957346;28;20055;-72
2022/03/18 12:25:15;;;;;;;20.88;14.73;;;;;;;;;;4956907;28;20156;-72
2022/03/18 12:28:04;;;;;;;23.08;15.02;;;;;;;;;;4956786;28;20047;-73
2022/03/18 12:30:52;;;;;;;18.77;15.40;;;;;;;;;;4956856;28;20051;-72
2022/03/18 12:33:30;;;;;;;18.80;13.38;;;;;;;;;;4948154;29;20145;-72
2022/03/18 12:36:15;;;;;;;24.80;14.65;;;;;;;;;;4956382;29;20463;-71
2022/03/18 12:38:46;;;;;;;19.90;13.63;;;;;;;;;;4956781;29;20415;-72
2022/03/18 12:41:21;;;;;;;16.52;14.85;;;;;;;;;;4956279;28;20102;-72
2022/03/18 12:43:53;;;;;;;15.35;13.63;;;;;;;;;;4956572;29;20153;-72
2022/03/18 12:46:22;;;;;;;18.30;13.00;;;;;;;;;;4956459;29;20418;-72
2022/03/18 12:48:51;;;;;;;16.88;12.13;;;;;;;;;;4955153;29;20055;-72
2022/03/18 12:51:23;;;;;;;14.45;12.90;;;;;;;;;;4955290;29;20051;-71
2022/03/18 12:53:53;;;;;;;13.55;11.88;;;;;;;;;;4956622;29;20398;-72
2022/03/18 12:56:43;;;;;;;16.55;11.60;;;;;;;;;;4956126;28;20055;-72
2022/03/18 12:59:17;;;;;;;36.25;11.45;;;;;;;;;;4955848;28;20451;-70
2022/03/18 13:01:53;;;;;;;13.60;11.10;;;;;;;;;;4944960;28;20058;-70
2022/03/18 13:04:24;;;;;;;14.40;11.90;;;;;;;;;;4955884;28;20062;-71
2022/03/18 13:06:56;;;;;;;13.27;10.40;;;;;;;;;;4956169;28;20055;-70
2022/03/18 13:09:48;;;;;;;14.68;10.13;;;;;;;;;;4955801;29;20047;-69
2022/03/18 13:12:30;;;;;;;16.88;10.43;;;;;;;;;;4955409;28;20570;-70
2022/03/18 13:14:59;;;;;;;11.43;10.23;;;;;;;;;;4956120;28;20055;-69
2022/03/18 13:17:30;;;;;;;15.93;9.05;;;;;;;;;;4956061;29;20126;-68
2022/03/18 13:19:59;;;;;;;16.15;9.27;;;;;;;;;;4955752;28;20051;-69
2022/03/18 13:22:29;;;;;;;11.02;9.85;;;;;;;;;;4954446;28;20051;-69
2022/03/18 13:25:00;;;;;;;11.45;9.70;;;;;;;;;;4955729;28;20480;-69
2022/03/18 13:27:29;;;;;;;13.43;8.93;;;;;;;;;;4955765;29;20402;-69
2022/03/18 13:32:50;;;;;;;17.10;10.07;;;;;;;;;;4955972;29;20105;-69
2022/03/18 13:35:40;;;;;;;13.50;9.23;;;;;;;;;;4953435;29;20063;-70
2022/03/18 13:38:10;;;;;;;14.50;11.60;;;;;;;;;;4952125;29;20051;-68
2022/03/18 13:40:41;;;;;;;13.93;10.13;;;;;;;;;;4954931;28;20050;-68
2022/03/18 13:43:10;;;;;;;14.93;10.55;;;;;;;;;;4949317;29;20494;-69
2022/03/18 13:45:48;;;;;;;19.77;10.07;;;;;;;;;;4954752;28;20054;-69
2022/03/18 13:48:28;;;;;;;12.63;10.40;;;;;;;;;;4954702;28;20058;-68
2022/03/18 13:51:40;;;;;;;14.50;11.38;;;;;;;;;;4951586;29;20057;-68
2022/03/18 13:54:13;;;;;;;11.43;10.27;;;;;;;;;;4954531;28;20495;-68
2022/03/18 13:56:43;;;;;;;23.98;10.60;;;;;;;;;;4954833;29;20105;-68
2022/03/18 13:59:18;;;;;;;13.75;10.88;;;;;;;;;;4954844;29;20051;-68
2022/03/18 14:02:08;;;;;;;16.27;10.82;;;;;;;;;;4955236;28;20470;-69
2022/03/18 14:04:47;;;;;;;17.67;9.55;;;;;;;;;;4955512;28;20192;-69
2022/03/18 14:07:15;;;;;;;15.38;10.35;;;;;;;;;;4955117;28;20055;-69
2022/03/18 14:10:03;;;;;;;13.50;11.00;;;;;;;;;;4955261;28;20109;-69
2022/03/18 14:12:32;;;;;;;13.80;10.73;;;;;;;;;;4955092;29;20055;-69
2022/03/18 14:15:15;;;;;;;12.60;9.88;;;;;;;;;;4957751;28;20521;-69
2022/03/18 14:18:02;;;;;;;13.55;9.07;;;;;;;;;;4959206;29;20055;-69
2022/03/18 14:20:31;;;;;;;12.63;10.98;;;;;;;;;;4959172;28;20051;-69
2022/03/18 14:23:23;;;;;;;15.85;10.50;;;;;;;;;;4958640;28;20536;-69
2022/03/18 14:25:54;;;;;;;16.00;9.93;;;;;;;;;;4958955;28;20043;-68
2022/03/18 14:28:25;;;;;;;19.90;10.93;;;;;;;;;;4958933;28;20058;-69
2022/03/18 14:30:55;;;;;;;14.73;11.15;;;;;;;;;;4958921;28;20529;-69
2022/03/18 14:33:26;;;;;;;14.63;10.45;;;;;;;;;;4959193;28;20058;-69
2022/03/18 14:35:55;;;;;;;12.20;9.65;;;;;;;;;;4958866;28;20086;-69
2022/03/18 14:38:25;;;;;;;16.73;11.18;;;;;;;;;;4958859;28;20138;-69
2022/03/18 14:40:53;;;;;;;12.50;11.10;;;;;;;;;;4958812;29;20083;-69
2022/03/18 14:43:22;;;;;;;12.73;9.55;;;;;;;;;;4959052;28;20067;-69
2022/03/18 14:45:51;;;;;;;13.65;11.30;;;;;;;;;;4958403;28;20059;-69
2022/03/18 14:48:22;;;;;;;13.90;9.73;;;;;;;;;;4957920;28;20043;-69
2022/03/18 14:50:50;;;;;;;16.52;10.52;;;;;;;;;;4957779;28;20047;-69
2022/03/18 14:53:19;;;;;;;18.70;9.63;;;;;;;;;;4957971;29;20105;-68
2022/03/18 14:58:36;;;;;;;18.65;10.88;;;;;;;;;;4957686;28;20051;-68
2022/03/18 15:01:06;;;;;;;13.45;10.38;;;;;;;;;;4957711;28;20058;-69
2022/03/18 15:03:36;;;;;;;13.40;10.45;;;;;;;;;;4956185;29;20478;-68
2022/03/18 15:06:06;;;;;;;13.25;10.48;;;;;;;;;;4957020;28;20459;-69
2022/03/18 15:08:36;;;;;;;14.75;9.85;;;;;;;;;;4955430;29;20459;-68